EGNM Airport Information

Runway Information
Runway 14 Length 7382 ft width 150 ft
Elevation 673 ft Threshold 958 ft Heading 138
Runway 32 Length 7382 ft Width 150 ft
Elevation 662 ft Threshold 962 ft Heading 318
Airport Frequencies
Type APP Name APP Frequency 123.75 MHZ
Type ATIS Name ATIS Frequency 118.025 MHZ
Type ILS Rw 32/ Name Frequency 110.9 MHZ
Type TWR Name TWR Frequency 120.3 MHZ
Airport Navaids
Type NDB Name Leeds Bradford Frequency 403 KHZ
Airport Weather Information & NOTAM
ADDS - METARS form results

(0429 UTC 18 November 2018)
Data provider http://aviationweather.gov/metar/data/
 
METAR text: EGNM 180420Z 04006KT 350V090 0400 FG VV/// 05/05 Q1031
Conditions at: EGNM (LEEDS AND BRADFO, GB) observed 0420 UTC 18 November 2018
Temperature: 5.0°C (41°F)
Dewpoint: 5.0°C (41°F) [RH = 100%]
Pressure (altimeter): 30.44 inches Hg (1031.0 mb)
Winds: from the NE (40 degrees) at 7 MPH (6 knots; 3.1 m/s)
Visibility: 0.25 miles (0.40 km)
Ceiling: indefinite ceiling with vertical visibility of 0 feet AGL
Clouds: obscured sky
Weather: FG  (fog)

METAR text: EGNM 180350Z 05005KT 020V100 0450 FG VV/// 05/05 Q1031
Conditions at: EGNM (LEEDS AND BRADFO, GB) observed 0350 UTC 18 November 2018
Temperature: 5.0°C (41°F)
Dewpoint: 5.0°C (41°F) [RH = 100%]
Pressure (altimeter): 30.44 inches Hg (1031.0 mb)
Winds: from the NE (50 degrees) at 6 MPH (5 knots; 2.6 m/s)
Visibility: 0.28 miles (0.45 km)
Ceiling: indefinite ceiling with vertical visibility of 0 feet AGL
Clouds: obscured sky
Weather: FG  (fog)

Forecast for: EGNM (LEEDS AND BRADFO, GB)
Text: TAF EGNM 172255Z 1800/1824 08008KT 0300 FG VV///
Forecast period: 0000 to 1000 UTC 18 November 2018
Forecast type: FROM: standard forecast or significant change
Winds: from the E (80 degrees) at 9 MPH (8 knots; 4.1 m/s)
Visibility: 0.19 miles (0.31 km)
Ceiling: unknown
Clouds: missing
Weather: FG  (fog)
Text: PROB40
Forecast period: 0000 to 1000 UTC 18 November 2018
Forecast type: TEMPORARY: The following changes expected for less than half the time period
Visibility: 0.93 miles (1.50 km)
Ceiling: 200 feet AGL
Clouds: broken clouds at 200 feet AGL
Weather: BR  (mist)
Text: TEMPO 1800/1810 1500 BR BKN002
Forecast period: 1000 UTC 18 November 2018 to 0000 UTC 19 November 2018
Forecast type: BECOMING: Conditions expected to become as follows by 1300 UTC 18 November 2018
Winds: from the E (80 degrees) at 9 MPH (8 knots; 4.1 m/s)
Visibility: 5 miles (8 km)
Ceiling: at least 12,000 feet AGL
Clouds: scattered clouds at 1000 feet AGL
Weather: NSW  (no significant weather)
Text: BECMG 1810/1813 8000 NSW SCT010
Forecast period: 2100 UTC 18 November 2018 to 0000 UTC 19 November 2018
Forecast type: TEMPORARY: The following changes expected for less than half the time period
Visibility: missing
Ceiling: 500 feet AGL
Clouds: broken clouds at 500 feet AGL
Weather: no significant weather forecast for this period